HomeShort term forecast

Short term forecast

Graphical weather forecast for the next 48 hours for Montreal:
Short term forecast
This weather forecast is automatically refreshed every 3 hours.

Hourly Experimental Forecast for the next 48 hours

Overall summary: Mostly cloudy throughout the day.

 Date & Hour   Temp   Feel   Baro   Hum   Speed & Bearing   Wind Gust   Precip.%   Precip.   Visibility   Cloud cover   Conditions 
 17/07/2019 - 10:00  26.4°C  27.8°C  1010.3 hPa  70%  11.4 km/h   18.9 km/h  0%  --  16.1km  98%  Overcast 
 17/07/2019 - 11:00  27.3°C  29.1°C  1010.7 hPa  66%  11.9 km/h   16.9 km/h  0%  --  16.1km  74%  Mostly Cloudy 
 17/07/2019 - 12:00  28.2°C  30.2°C  1010.6 hPa  63%  12.7 km/h   16.2 km/h  2%  0.02 mm/h  16.1km  86%  Mostly Cloudy 
 17/07/2019 - 13:00  29.4°C  31.4°C  1010.5 hPa  59%  13.8 km/h   17.4 km/h  3%  0.08 mm/h  16.1km  89%  Overcast 
 17/07/2019 - 14:00  29.7°C  31.7°C  1010.3 hPa  57%  14.4 km/h   18.7 km/h  4%  0.13 mm/h  16.1km  90%  Overcast 
 17/07/2019 - 15:00  29.4°C  31.3°C  1010.2 hPa  57%  13.2 km/h   18.2 km/h  5%  0.17 mm/h  16.1km  95%  Overcast 
 17/07/2019 - 16:00  28.3°C  30.0°C  1010.4 hPa  61%  12.7 km/h   20.7 km/h  8%  0.35 mm/h  16.1km  99%  Overcast 
 17/07/2019 - 17:00  27.1°C  28.6°C  1010.9 hPa  65%  10.3 km/h   19.5 km/h  20%  0.94 mm/h  15.9km  99%  Overcast 
 17/07/2019 - 18:00  26.5°C  27.7°C  1011.4 hPa  64%  10.0 km/h   19.3 km/h  8%  0.33 mm/h  16.1km  75%  Mostly Cloudy 
 17/07/2019 - 19:00  26.0°C  26.3°C  1012.2 hPa  63%  12.2 km/h   23.0 km/h  5%  0.10 mm/h  16.1km  47%  Partly Cloudy 
 17/07/2019 - 20:00  25.2°C  25.4°C  1012.9 hPa  63%  12.4 km/h   24.4 km/h  3%  0.03 mm/h  16.1km  32%  Partly Cloudy 
 17/07/2019 - 21:00  24.0°C  24.1°C  1013.4 hPa  62%  11.8 km/h   25.8 km/h  2%  0.01 mm/h  16.1km  26%  Partly Cloudy 
 17/07/2019 - 22:00  22.8°C  22.8°C  1014.0 hPa  61%  11.9 km/h   26.0 km/h  0%  --  16.1km  41%  Partly Cloudy 
 17/07/2019 - 23:00  21.9°C  21.9°C  1014.4 hPa  60%  12.2 km/h   27.8 km/h  0%  --  16.1km  16%  Partly Cloudy 
 18/07/2019 - 00:00  21.0°C  21.0°C  1014.8 hPa  60%  12.4 km/h   28.9 km/h  0%  --  16.1km  10%  Clear 
 18/07/2019 - 01:00  20.3°C  20.3°C  1015.0 hPa  60%  12.5 km/h   29.3 km/h  0%  --  16.1km  4%  Clear 
 18/07/2019 - 02:00  19.6°C  19.6°C  1015.2 hPa  61%  12.8 km/h   30.1 km/h  0%  --  16.1km  1%  Clear 
 18/07/2019 - 03:00  18.5°C  18.5°C  1015.5 hPa  63%  13.1 km/h   32.1 km/h  0%  --  16.1km  7%  Clear 
 18/07/2019 - 04:00  17.3°C  17.3°C  1015.8 hPa  65%  13.5 km/h   34.3 km/h  0%  --  16.1km  16%  Partly Cloudy 
 18/07/2019 - 05:00  16.5°C  16.5°C  1016.1 hPa  67%  13.8 km/h   35.6 km/h  0%  --  16.1km  23%  Partly Cloudy 
 18/07/2019 - 06:00  16.6°C  16.6°C  1016.3 hPa  67%  14.2 km/h   35.1 km/h  0%  --  16.1km  23%  Partly Cloudy 
 18/07/2019 - 07:00  17.4°C  17.4°C  1016.6 hPa  64%  14.6 km/h   33.5 km/h  0%  --  16.1km  20%  Partly Cloudy 
 18/07/2019 - 08:00  18.4°C  18.4°C  1016.6 hPa  61%  14.8 km/h   31.2 km/h  0%  --  16.1km  16%  Partly Cloudy 
 18/07/2019 - 09:00  19.9°C  19.9°C  1016.4 hPa  57%  14.8 km/h   28.1 km/h  0%  --  16.1km  11%  Clear 
 18/07/2019 - 10:00  21.7°C  21.7°C  1016.1 hPa  53%  14.5 km/h   24.3 km/h  0%  --  16.1km  5%  Clear 
 18/07/2019 - 11:00  23.2°C  23.2°C  1015.7 hPa  49%  14.1 km/h   21.0 km/h  0%  --  16.1km  3%  Clear 
 18/07/2019 - 12:00  24.7°C  24.7°C  1015.3 hPa  46%  13.3 km/h   18.3 km/h  0%  --  16.1km  7%  Clear 
 18/07/2019 - 13:00  26.0°C  26.0°C  1014.8 hPa  44%  12.4 km/h   16.0 km/h  0%  --  16.1km  15%  Partly Cloudy 
 18/07/2019 - 14:00  27.2°C  27.2°C  1014.3 hPa  42%  11.5 km/h   14.2 km/h  0%  --  16.1km  22%  Partly Cloudy 
 18/07/2019 - 15:00  28.1°C  28.1°C  1013.4 hPa  41%  10.7 km/h   13.0 km/h  0%  --  16.1km  37%  Partly Cloudy 
 18/07/2019 - 16:00  28.9°C  28.9°C  1012.5 hPa  41%  10.0 km/h   12.3 km/h  0%  --  16.1km  55%  Mostly Cloudy 
 18/07/2019 - 17:00  28.9°C  28.9°C  1011.7 hPa  43%  9.4 km/h   12.5 km/h  1%  0.01 mm/h  16.1km  65%  Mostly Cloudy 
 18/07/2019 - 18:00  28.4°C  28.6°C  1011.4 hPa  47%  8.9 km/h   14.2 km/h  0%  --  16.1km  57%  Mostly Cloudy 
 18/07/2019 - 19:00  27.6°C  28.1°C  1011.3 hPa  51%  8.6 km/h   17.0 km/h  0%  --  16.1km  41%  Partly Cloudy 
 18/07/2019 - 20:00  26.6°C  27.3°C  1011.2 hPa  56%  8.6 km/h   19.5 km/h  0%  --  16.1km  31%  Partly Cloudy 
 18/07/2019 - 21:00  25.3°C  25.5°C  1011.1 hPa  60%  9.4 km/h   21.8 km/h  0%  --  16.1km  37%  Partly Cloudy 
 18/07/2019 - 22:00  24.1°C  24.2°C  1011.0 hPa  63%  10.5 km/h   23.6 km/h  1%  0.01 mm/h  16.1km  45%  Partly Cloudy 
 18/07/2019 - 23:00  23.3°C  23.4°C  1010.7 hPa  66%  11.1 km/h   24.2 km/h  1%  0.01 mm/h  16.1km  51%  Mostly Cloudy 
 19/07/2019 - 00:00  22.8°C  22.9°C  1010.3 hPa  68%  10.8 km/h   22.4 km/h  1%  0.02 mm/h  16.1km  53%  Mostly Cloudy 
 19/07/2019 - 01:00  22.5°C  22.6°C  1009.8 hPa  70%  10.0 km/h   19.4 km/h  2%  0.03 mm/h  16.1km  52%  Mostly Cloudy 
 19/07/2019 - 02:00  22.1°C  22.3°C  1009.4 hPa  73%  9.3 km/h   17.6 km/h  3%  0.04 mm/h  16.1km  52%  Mostly Cloudy 
 19/07/2019 - 03:00  21.7°C  21.9°C  1009.0 hPa  76%  8.7 km/h   18.2 km/h  4%  0.03 mm/h  16.1km  53%  Mostly Cloudy 
 19/07/2019 - 04:00  21.3°C  21.6°C  1008.8 hPa  78%  8.2 km/h   19.9 km/h  4%  0.02 mm/h  16.1km  54%  Mostly Cloudy 
 19/07/2019 - 05:00  21.1°C  21.4°C  1008.6 hPa  81%  8.1 km/h   20.7 km/h  4%  0.02 mm/h  16.1km  56%  Mostly Cloudy 
 19/07/2019 - 06:00  21.3°C  21.6°C  1008.5 hPa  82%  8.4 km/h   19.1 km/h  3%  0.04 mm/h  16.1km  66%  Mostly Cloudy 
 19/07/2019 - 07:00  21.9°C  22.3°C  1008.5 hPa  81%  9.1 km/h   16.4 km/h  4%  0.06 mm/h  16.1km  79%  Mostly Cloudy 
 19/07/2019 - 08:00  22.6°C  23.0°C  1008.4 hPa  81%  10.1 km/h   15.3 km/h  4%  0.08 mm/h  16.1km  88%  Overcast 
 19/07/2019 - 09:00  23.4°C  23.9°C  1008.1 hPa  80%  11.8 km/h   16.9 km/h  4%  0.10 mm/h  16.1km  88%  Overcast 
Test

 

Past weather and reports

Past weatherFind in this section the past weather conditions, weather archive, graphics, reports and statistics.

Current conditions

Current weather condition for MontrealAll you need to know about the current weather conditions for Montreal. Weather data is updated every 10 minutes.

Weather forecast

Current Montreal weatherSince 2004, celinium.com website has provided accurate weather forecast for Montreal's island.